Contoocook, New Hampshire
Current Conditions -  °F | °C
As of 11:51 PM on Saturday 20 Dec 2014 (Local Time) from KCON Reporting Station
Overcast Overcast  
Wind Chill: 24°   Ceiling: 4200
Heat Index: 29°   Visibility: 10mi
Dew Point: 22°   Wind: 5mph
Humidity: 75%   Direction: 30°NNE
Pressure: 30.3"   Gusts: NA
Location:  43.22°N, 71.71°W
Report Text: KCON 210451Z AUTO 03004KT 10SM OVC042 M02/M06 A3030 RMK AO2 SLP266 T10171056 400221089
Loading
Personal Weather Stations






























Interactive Weather Map New forecast layout! Learn more

10-Day Weather Forecast

Advertisements
Track Severe Weather on mobile